Latest Coastal Weather Observations for Melbourne (Olympic Park)

IDV60701

Issued at 2:35 am EST Tuesday 29 July 2014 (issued every 10 minutes, with the page automatically refreshed every 10 minutes)

About coastal observations | Map of coastal stations | Coastal observations for VIC | Marine services | Other Formats
Station Details ID: 086338 Name: MELBOURNE (OLYMPIC PARK) Lat: -37.83 Lon: 144.98 Height: 7.53 m
Data from the previous 72 hours. | See also: Recent months at Melbourne (Olympic Park)
Date/Time
EST
Temp

°C
Wind Pressure Rain
since 9am
mm
Weather Cloud Vis
km
Sea
Height
m
Swell
Dir
 
Speed
knots
Gust
knots
hPa Trend Height
m
Period
s
Dir
29/02:30am 11.6 N 8 12 1010.5 - 0.0 - - - - - - -
29/02:00am 11.8 N 9 13 1011.3 - 0.0 - - - - - - -
29/01:30am 11.8 N 9 15 1011.5 - 0.0 - - - - - - -
29/01:00am 11.7 N 10 16 1011.7 - 0.0 - - - - - - -
29/12:30am 12.0 N 10 15 1012.2 - 0.0 - - - - - - -
29/12:00am 12.1 N 9 15 1012.7 - 0.0 - - - - - - -
 
Date/Time
EST
Temp

°C
Wind Pressure Rain
since 9am
mm
Weather Cloud Vis
km
Sea
Height
m
Swell
Dir
 
Speed
knots
Gust
knots
hPa Trend Height
m
Period
s
Dir
28/11:30pm 12.7 N 7 13 1012.8 - 0.0 - - - - - - -
28/11:00pm 12.5 N 7 10 1013.1 - 0.0 - - - - - - -
28/10:30pm 12.8 N 7 13 1013.2 - 0.0 - - - - - - -
28/10:00pm 12.9 N 9 14 1013.0 - 0.0 - - - - - - -
28/09:30pm 13.1 N 11 17 1012.9 - 0.0 - - - - - - -
28/09:00pm 13.2 N 11 17 1012.9 - 0.0 - - - - - - -
28/08:30pm 13.2 N 10 17 1012.9 - 0.0 - - - - - - -
28/08:00pm 13.4 N 10 19 1013.0 - 0.0 - - - - - - -
28/07:30pm 13.8 N 8 13 1012.9 - 0.0 - - - - - - -
28/07:00pm 13.8 NNE 9 13 1012.8 - 0.0 - - - - - - -
28/06:30pm 13.8 N 10 16 1012.1 - 0.0 - - - - - - -
28/06:00pm 14.3 N 9 13 1012.3 - 0.0 - - - - - - -
28/05:30pm 15.1 N 11 15 1012.4 - 0.0 - - - - - - -
28/05:00pm 15.8 N 11 16 1012.7 - 0.0 - - - - - - -
28/04:30pm 16.1 N 13 21 1012.7 - 0.0 - - - - - - -
28/04:00pm 16.4 N 12 22 1012.3 - 0.0 - - - - - - -
28/03:30pm 16.7 N 12 21 1012.0 - 0.0 - - - - - - -
28/03:00pm 16.3 N 14 22 1012.0 - 0.0 - - - - - - -
28/02:37pm 16.2 N 15 25 1012.3 - 0.0 - - - - - - -
28/02:30pm 16.2 N 15 22 1012.3 - 0.0 - - - - - - -
28/02:00pm 16.3 N 13 22 1012.7 - 0.0 - - - - - - -
28/01:30pm 16.1 N 13 18 1013.2 - 0.0 - - - - - - -
28/01:00pm 16.5 N 12 19 1013.7 - 0.0 - - - - - - -
28/12:30pm 16.0 N 13 20 1014.2 - 0.0 - - - - - - -
28/12:00pm 15.5 N 8 18 1014.7 - 0.0 - - - - - - -
28/11:30am 15.0 NNW 14 20 1015.1 - 0.0 - - - - - - -
28/11:00am 14.3 N 13 19 1015.3 - 0.0 - - - - - - -
28/10:30am 13.8 N 12 18 1015.8 - 0.0 - - - - - - -
28/10:00am 13.5 N 10 15 1015.9 - 0.0 - - - - - - -
28/09:30am 12.5 N 13 20 1016.1 - 0.0 - - - - - - -
28/09:00am 12.0 N 11 19 1016.4 - 0.0 - - - - - - -
28/08:30am 11.1 N 12 18 1016.2 - 0.0 - - - - - - -
28/08:00am 10.7 N 13 19 1016.4 - 0.0 - - - - - - -
28/07:30am 10.5 N 13 21 1016.4 - 0.0 - - - - - - -
28/07:00am 10.4 N 13 18 1016.3 - 0.0 - - - - - - -
28/06:30am 10.5 N 11 17 1016.3 - 0.0 - - - - - - -
28/06:00am 10.0 N 7 11 1016.5 - 0.0 - - - - - - -
28/05:30am 10.4 N 8 14 1016.7 - 0.0 - - - - - - -
28/05:00am 10.4 NNE 8 14 1016.7 - 0.0 - - - - - - -
28/04:30am 10.5 N 11 18 1016.7 - 0.0 - - - - - - -
28/04:00am 10.2 N 8 14 1016.7 - 0.0 - - - - - - -
28/03:30am 10.3 N 9 17 1017.1 - 0.0 - - - - - - -
28/03:00am 10.6 N 10 15 1017.6 - 0.0 - - - - - - -
28/02:30am 10.9 N 9 15 1017.9 - 0.0 - - - - - - -
28/02:00am 11.0 N 8 12 1018.1 - 0.0 - - - - - - -
28/01:30am 10.8 N 10 14 1018.2 - 0.0 - - - - - - -
28/01:00am 11.2 N 11 16 1018.6 - 0.0 - - - - - - -
28/12:30am 11.5 N 11 17 1018.8 - 0.0 - - - - - - -
28/12:00am 11.9 N 12 19 1019.0 - 0.0 - - - - - - -
 
Date/Time
EST
Temp

°C
Wind Pressure Rain
since 9am
mm
Weather Cloud Vis
km
Sea
Height
m
Swell
Dir
 
Speed
knots
Gust
knots
hPa Trend Height
m
Period
s
Dir
27/11:30pm 11.9 N 12 18 1019.3 - 0.0 - - - - - - -
27/11:00pm 12.0 N 11 17 1019.8 - 0.0 - - - - - - -
27/10:30pm 11.8 N 10 18 1020.2 - 0.0 - - - - - - -
27/10:00pm 12.1 N 9 14 1020.5 - 0.0 - - - - - - -
27/09:30pm 12.1 N 7 11 1020.6 - 0.0 - - - - - - -
27/09:00pm 12.1 N 7 12 1020.7 - 0.0 - - - - - - -
27/08:30pm 12.5 NNE 6 9 1020.8 - 0.0 - - - - - - -
27/08:00pm 13.2 N 7 9 1020.9 - 0.0 - - - - - - -
27/07:30pm 13.0 N 7 11 1020.9 - 0.0 - - - - - - -
27/07:00pm 13.0 N 6 10 1020.6 - 0.0 - - - - - - -
27/06:30pm 13.5 N 8 12 1020.2 - 0.0 - - - - - - -
27/06:00pm 14.1 N 8 13 1020.1 - 0.0 - - - - - - -
27/05:30pm 15.0 N 8 12 1020.2 - 0.0 - - - - - - -
27/05:00pm 15.1 N 7 12 1020.7 - 0.0 - - - - - - -
27/04:30pm 15.3 NNW 8 13 1020.5 - 0.0 - - - - - - -
27/04:00pm 15.5 N 8 13 1020.8 - 0.0 - - - - - - -
27/03:30pm 15.6 N 11 15 1020.5 - 0.0 - - - - - - -
27/03:00pm 15.7 N 10 15 1020.5 - 0.0 - - - - - - -
27/02:30pm 15.7 N 9 15 1020.4 - 0.0 - - - - - - -
27/02:00pm 15.7 N 11 19 1020.4 - 0.0 - - - - - - -
27/01:30pm 16.0 NNW 10 17 1020.8 - 0.0 - - - - - - -
27/01:00pm 16.1 N 9 14 1021.4 - 0.0 - - - - - - -
27/12:30pm 15.2 NNW 12 17 1022.0 - 0.0 - - - - - - -
27/12:00pm 14.7 N 9 15 1022.7 - 0.0 - - - - - - -
27/11:30am 14.8 N 11 16 1023.3 - 0.0 - - - - - - -
27/11:00am 14.3 N 10 14 1023.8 - 0.0 - - - - - - -
27/10:30am 13.7 N 8 11 1024.4 - 0.0 - - - - - - -
27/10:00am 13.2 N 7 9 1024.9 - 0.0 - - - - - - -
27/09:30am 11.5 N 6 8 1025.1 - 0.0 - - - - - - -
27/09:00am 10.2 N 7 9 1025.0 - 1.4 - - - - - - -
27/08:30am 8.2 NNE 4 6 1025.0 - 1.4 - - - - - - -
27/08:00am 7.7 NNE 4 6 1025.0 - 1.4 - - - - - - -
27/07:30am 7.7 NNE 4 5 1024.9 - 1.4 - - - - - - -
27/07:00am 7.9 NNE 5 7 1024.6 - 1.4 - - - - - - -
27/06:30am 8.0 NNE 2 4 1024.5 - 1.4 - - - - - - -
27/06:00am 7.9 N 1 4 1024.5 - 1.4 - - - - - - -
27/05:30am 7.5 NNE 1 5 1024.4 - 1.4 - - - - - - -
27/05:00am 7.3 CALM 0 0 1024.6 - 1.4 - - - - - - -
27/04:30am 8.0 N 1 4 1024.6 - 1.4 - - - - - - -
27/04:00am 9.0 N 4 5 1024.8 - 1.4 - - - - - - -
27/03:30am 9.8 N 5 7 1024.9 - 1.4 - - - - - - -
27/03:00am 8.5 CALM 0 0 1025.1 - 1.4 - - - - - - -
27/02:30am 9.3 CALM 0 0 1025.2 - 1.4 - - - - - - -
27/02:00am 10.6 NNW 4 5 1025.1 - 1.4 - - - - - - -
27/01:30am 11.2 NNW 1 4 1025.2 - 1.4 - - - - - - -
27/01:00am 12.0 WNW 4 6 1025.2 - 1.4 - - - - - - -
27/12:30am 12.0 W 3 6 1025.4 - 1.4 - - - - - - -
27/12:00am 12.0 W 2 5 1025.6 - 1.4 - - - - - - -
 
Date/Time
EST
Temp

°C
Wind Pressure Rain
since 9am
mm
Weather Cloud Vis
km
Sea
Height
m
Swell
Dir
 
Speed
knots
Gust
knots
hPa Trend Height
m
Period
s
Dir
26/11:30pm 12.1 WNW 3 8 1025.6 - 1.4 - - - - - - -
26/11:00pm 12.4 W 4 6 1025.7 - 1.4 - - - - - - -
26/10:30pm 12.3 W 4 7 1025.7 - 1.4 - - - - - - -
26/10:00pm 12.5 W 4 7 1025.7 - 1.4 - - - - - - -
26/09:30pm 12.8 W 5 9 1025.6 - 1.4 - - - - - - -
26/09:00pm 12.8 W 5 10 1025.4 - 1.4 - - - - - - -
26/08:30pm 12.9 W 5 11 1025.2 - 1.4 - - - - - - -
26/08:00pm 13.0 W 4 8 1025.0 - 1.4 - - - - - - -
26/07:30pm 13.0 W 4 6 1024.9 - 1.4 - - - - - - -
26/07:00pm 12.9 W 3 7 1024.6 - 1.4 - - - - - - -
26/06:30pm 12.7 SW 1 4 1024.4 - 1.4 - - - - - - -
26/06:00pm 12.7 SW 1 5 1024.2 - 1.4 - - - - - - -
26/05:30pm 12.5 W 4 7 1024.0 - 1.4 - - - - - - -
26/05:00pm 12.1 W 4 7 1023.8 - 1.4 - - - - - - -
26/04:30pm 12.1 SW 5 10 1023.7 - 1.2 - - - - - - -
26/04:00pm 12.4 SSW 10 16 1023.4 - 0.6 - - - - - - -
26/03:30pm 14.2 W 6 15 1022.9 - 0.6 - - - - - - -
26/03:00pm 14.3 WNW 3 7 1022.7 - 0.4 - - - - - - -
26/02:30pm 13.9 W 3 7 1022.5 - 0.4 - - - - - - -
26/02:00pm 13.9 W 4 9 1022.5 - 0.2 - - - - - - -
26/01:30pm 14.3 W 6 14 1022.4 - 0.0 - - - - - - -
26/01:00pm 14.5 WNW 7 10 1022.4 - 0.0 - - - - - - -
26/12:30pm 14.2 W 4 8 1022.7 - 0.0 - - - - - - -
26/12:00pm 14.2 NW 6 9 1023.0 - 0.0 - - - - - - -
26/11:30am 14.1 WNW 7 10 1023.3 - 0.0 - - - - - - -
26/11:00am 14.1 WNW 6 10 1023.5 - 0.0 - - - - - - -
26/10:30am 13.7 WNW 6 9 1023.6 - 0.0 - - - - - - -
26/10:00am 13.4 NW 5 9 1023.6 - 0.0 - - - - - - -
26/09:30am 13.2 NW 5 8 1023.3 - 0.0 - - - - - - -
26/09:00am 13.2 WNW 4 7 1023.0 - 0.0 - - - - - - -
26/08:30am 13.0 NNW 6 9 1022.7 - 0.0 - - - - - - -
26/08:00am 12.8 NNW 5 8 1022.5 - 0.0 - - - - - - -
26/07:30am 12.8 NW 5 10 1022.1 - 0.0 - - - - - - -
26/07:00am 12.7 NNW 7 11 1021.8 - 0.0 - - - - - - -
26/06:30am 12.9 NNW 6 11 1021.4 - 0.0 - - - - - - -
26/06:00am 12.5 N 5 7 1021.1 - 0.0 - - - - - - -
26/05:30am 12.5 N 5 7 1020.8 - 0.0 - - - - - - -
26/05:00am 12.7 N 5 8 1020.6 - 0.0 - - - - - - -
26/04:30am 12.6 N 7 11 1020.3 - 0.0 - - - - - - -
26/04:00am 12.8 N 6 9 1020.3 - 0.0 - - - - - - -
26/03:30am 12.4 N 5 8 1020.1 - 0.0 - - - - - - -
26/03:00am 13.0 NNW 8 11 1020.0 - 0.0 - - - - - - -

Other Formats:

Comma delimited format used in spreadsheet applications
http://www.bom.gov.au/fwo/IDV60701/IDV60701.95936.axf

JavaScript Object Notation format (JSON) in row-major order
http://www.bom.gov.au/fwo/IDV60701/IDV60701.95936.json